Time;durP1;ratioP1;P1;durP2;ratioP2;P2;SDS_P1;SDS_P2;PMS_P1;PMS_P2;Temp;Humidity;BMP_temperature;BMP_pressure;BME280_temperature;BME280_humidity;BME280_pressure;Samples;Min_cycle;Max_cycle;Signal;HPM_P1;HPM_P2
2020/07/10 02:36:38;;;;;;;2.9;2.1;;;;;;;16.45;65.75;94974.18;;;;
2020/07/10 02:37:44;;;;;;;2.9;2.1;;;;;;;16.45;65.75;94974.18;;;;
2020/07/10 02:38:49;;;;;;;2.9;2.1;;;;;;;16.45;65.75;94974.18;;;;
2020/07/10 02:39:52;;;;;;;2.9;2.1;;;;;;;16.45;65.75;94974.18;;;;
2020/07/10 02:40:57;;;;;;;2.9;2.1;;;;;;;16.45;65.75;94974.18;;;;
2020/07/10 02:42:01;;;;;;;2.9;2.1;;;;;;;16.45;65.75;94974.18;;;;
2020/07/10 02:43:06;;;;;;;2.9;2.1;;;;;;;16.45;65.75;94974.18;;;;
2020/07/10 02:44:21;;;;;;;2.9;2.1;;;;;;;16.45;65.75;94974.18;;;;
2020/07/10 02:45:25;;;;;;;2.9;2.1;;;;;;;16.45;65.75;94974.18;;;;
2020/07/10 02:46:27;;;;;;;2.9;2.1;;;;;;;16.45;65.75;94974.18;;;;
2020/07/10 02:47:29;;;;;;;2.9;2.1;;;;;;;16.45;65.75;94974.18;;;;
2020/07/10 02:48:32;;;;;;;2.9;2.1;;;;;;;16.45;65.75;94974.18;;;;
2020/07/10 02:49:38;;;;;;;2.9;2.1;;;;;;;16.45;65.75;94974.18;;;;
2020/07/10 02:50:42;;;;;;;2.9;2.1;;;;;;;16.45;65.75;94974.18;;;;
2020/07/10 02:51:45;;;;;;;2.9;2.1;;;;;;;16.45;65.75;94974.18;;;;
2020/07/10 02:52:46;;;;;;;2.9;2.1;;;;;;;16.45;65.75;94974.18;;;;
2020/07/10 02:53:48;;;;;;;2.9;2.1;;;;;;;16.45;65.75;94974.18;;;;
2020/07/10 02:54:49;;;;;;;2.9;2.1;;;;;;;16.45;65.75;94974.18;;;;
2020/07/10 02:55:51;;;;;;;2.9;2.1;;;;;;;16.45;65.75;94974.18;;;;
2020/07/10 02:56:54;;;;;;;2.9;2.1;;;;;;;16.45;65.75;94974.18;;;;
2020/07/10 02:57:56;;;;;;;3.7;2.1;;;;;;;16.19;66.58301;94967.07;;;;
2020/07/10 02:59:01;;;;;;;3.7;2.1;;;;;;;16.19;66.58301;94967.07;;;;
2020/07/10 03:00:04;;;;;;;3.7;2.1;;;;;;;16.19;66.58301;94967.07;;;;
2020/07/10 03:01:06;;;;;;;3.7;2.1;;;;;;;16.19;66.58301;94967.07;;;;
2020/07/10 03:02:09;;;;;;;3.7;2.1;;;;;;;16.19;66.58301;94967.07;;;;
2020/07/10 03:03:22;;;;;;;3.7;2.1;;;;;;;16.19;66.58301;94967.07;;;;
2020/07/10 03:04:25;;;;;;;3.7;2.1;;;;;;;16.19;66.58301;94967.07;;;;
2020/07/10 03:05:37;;;;;;;3.7;2.1;;;;;;;16.19;66.58301;94967.07;;;;
2020/07/10 03:06:42;;;;;;;3.7;2.1;;;;;;;16.19;66.58301;94967.07;;;;
2020/07/10 03:07:47;;;;;;;3.7;2.1;;;;;;;16.19;66.58301;94967.07;;;;
2020/07/10 03:09:04;;;;;;;3.950001;2.1;;;;;;;16.12;67.25488;94966.71;;;;
2020/07/10 03:10:14;;;;;;;3.950001;2.1;;;;;;;16.12;67.25488;94966.71;;;;
2020/07/10 03:11:18;;;;;;;3.950001;2.1;;;;;;;16.12;67.25488;94966.71;;;;
2020/07/10 03:12:29;;;;;;;3.950001;2.1;;;;;;;16.12;67.25488;94966.71;;;;
2020/07/10 03:13:32;;;;;;;3.950001;2.1;;;;;;;16.12;67.25488;94966.71;;;;
2020/07/10 03:14:34;;;;;;;3.950001;2.1;;;;;;;16.12;67.25488;94966.71;;;;
2020/07/10 03:15:37;;;;;;;3.950001;2.1;;;;;;;16.12;67.25488;94966.71;;;;
2020/07/10 03:16:38;;;;;;;3.950001;2.1;;;;;;;16.12;67.25488;94966.71;;;;
2020/07/10 03:17:39;;;;;;;3.950001;2.1;;;;;;;16.12;67.25488;94966.71;;;;
2020/07/10 03:18:40;;;;;;;3.950001;2.1;;;;;;;16.12;67.25488;94966.71;;;;
2020/07/10 03:19:42;;;;;;;3.950001;2.1;;;;;;;16.12;67.25488;94966.71;;;;
2020/07/10 03:20:42;;;;;;;3.950001;2.1;;;;;;;16.12;67.25488;94966.71;;;;
2020/07/10 03:21:48;;;;;;;3.950001;2.1;;;;;;;16.12;67.25488;94966.71;;;;
2020/07/10 03:22:54;;;;;;;3.950001;2.1;;;;;;;16.12;67.25488;94966.71;;;;
2020/07/10 03:23:58;;;;;;;3.950001;2.1;;;;;;;16.12;67.25488;94966.71;;;;
2020/07/10 03:25:05;;;;;;;3.950001;2.1;;;;;;;16.12;67.25488;94966.71;;;;
2020/07/10 03:26:07;;;;;;;3.950001;2.1;;;;;;;16.12;67.25488;94966.71;;;;
2020/07/10 03:27:19;;;;;;;3.950001;2.1;;;;;;;16.12;67.25488;94966.71;;;;
2020/07/10 03:29:02;;;;;;;3.950001;2.1;;;;;;;16.12;67.25488;94966.71;;;;
2020/07/10 03:30:06;;;;;;;3.950001;2.1;;;;;;;16.12;67.25488;94966.71;;;;
2020/07/10 03:31:09;;;;;;;3.950001;2.1;;;;;;;16.12;67.25488;94966.71;;;;
2020/07/10 03:32:12;;;;;;;3.950001;2.1;;;;;;;16.12;67.25488;94966.71;;;;
2020/07/10 03:33:13;;;;;;;3.950001;2.1;;;;;;;16.12;67.25488;94966.71;;;;
2020/07/10 03:34:15;;;;;;;3.950001;2.1;;;;;;;16.12;67.25488;94966.71;;;;
2020/07/10 03:35:19;;;;;;;3.950001;2.1;;;;;;;16.12;67.25488;94966.71;;;;
2020/07/10 03:36:28;;;;;;;3.950001;2.1;;;;;;;16.12;67.25488;94966.71;;;;
2020/07/10 03:37:32;;;;;;;3.950001;2.1;;;;;;;16.12;67.25488;94966.71;;;;
2020/07/10 03:38:36;;;;;;;3.950001;2.1;;;;;;;16.12;67.25488;94966.71;;;;
2020/07/10 03:39:39;;;;;;;3.950001;2.1;;;;;;;16.12;67.25488;94966.71;;;;
2020/07/10 03:40:43;;;;;;;3.950001;2.1;;;;;;;16.12;67.25488;94966.71;;;;
2020/07/10 03:41:45;;;;;;;3.950001;2.1;;;;;;;16.12;67.25488;94966.71;;;;
2020/07/10 03:42:53;;;;;;;3.950001;2.1;;;;;;;16.12;67.25488;94966.71;;;;
2020/07/10 03:43:56;;;;;;;3.950001;2.1;;;;;;;16.12;67.25488;94966.71;;;;
2020/07/10 03:45:01;;;;;;;3.950001;2.1;;;;;;;16.12;67.25488;94966.71;;;;
2020/07/10 03:46:03;;;;;;;3.950001;2.1;;;;;;;16.12;67.25488;94966.71;;;;
2020/07/10 03:47:07;;;;;;;3.950001;2.1;;;;;;;16.12;67.25488;94966.71;;;;
2020/07/10 03:48:13;;;;;;;3.950001;2.1;;;;;;;16.12;67.25488;94966.71;;;;
2020/07/10 03:49:15;;;;;;;3.950001;2.1;;;;;;;16.12;67.25488;94966.71;;;;
2020/07/10 03:50:17;;;;;;;3.950001;2.1;;;;;;;16.12;67.25488;94966.71;;;;
2020/07/10 03:51:18;;;;;;;3.950001;2.1;;;;;;;16.12;67.25488;94966.71;;;;
2020/07/10 03:52:20;;;;;;;3.950001;2.1;;;;;;;16.12;67.25488;94966.71;;;;
2020/07/10 04:35:35;;;;;;;2.95;2.35;;;;;;;16.22;69.87695;94967.49;;;;
2020/07/10 04:41:02;;;;;;;2.95;2.35;;;;;;;16.22;69.87695;94967.49;;;;
2020/07/10 04:42:50;;;;;;;2.95;2.35;;;;;;;16.22;69.87695;94967.49;;;;
2020/07/10 04:44:03;;;;;;;2.95;2.35;;;;;;;16.22;69.87695;94967.49;;;;
2020/07/10 04:45:06;;;;;;;2.95;2.35;;;;;;;16.22;69.87695;94967.49;;;;
2020/07/10 04:46:08;;;;;;;2.95;2.35;;;;;;;16.22;69.87695;94967.49;;;;
2020/07/10 04:48:51;;;;;;;2.95;2.35;;;;;;;16.22;69.87695;94967.49;;;;
2020/07/10 04:50:05;;;;;;;2.95;2.35;;;;;;;16.22;69.87695;94967.49;;;;
2020/07/10 04:51:06;;;;;;;2.95;2.35;;;;;;;16.22;69.87695;94967.49;;;;
2020/07/10 04:52:19;;;;;;;2.95;2.35;;;;;;;16.22;69.87695;94967.49;;;;
2020/07/10 04:53:52;;;;;;;2.95;2.35;;;;;;;16.22;69.87695;94967.49;;;;
2020/07/10 04:59:20;;;;;;;3.5;2.45;;;;;;;17;69.68359;94959.84;;;;
2020/07/10 05:01:05;;;;;;;3.5;2.45;;;;;;;17;69.68359;94959.84;;;;
2020/07/10 05:03:00;;;;;;;3.5;2.45;;;;;;;17;69.68359;94959.84;;;;
2020/07/10 05:05:03;;;;;;;3.5;2.45;;;;;;;17;69.68359;94959.84;;;;
2020/07/10 05:07:14;;;;;;;2.85;2.25;;;;;;;17.46;69.53809;94958.94;;;;
2020/07/10 05:09:11;;;;;;;2.85;2.25;;;;;;;17.46;69.53809;94958.94;;;;
2020/07/10 05:14:52;;;;;;;2.85;2.25;;;;;;;17.46;69.53809;94958.94;;;;
2020/07/10 05:16:55;;;;;;;2.85;2.25;;;;;;;17.46;69.53809;94958.94;;;;
2020/07/10 05:22:38;;;;;;;4.6;2.2;;;;;;;18.04;69.24805;94955.13;;;;
2020/07/10 05:32:01;;;;;;;2.85;2.3;;;;;;;18.6;68.69238;94946.51;;;;
2020/07/10 05:33:35;;;;;;;2.85;2.3;;;;;;;18.6;68.69238;94946.51;;;;
2020/07/10 05:35:35;;;;;;;2.85;2.3;;;;;;;18.6;68.69238;94946.51;;;;
2020/07/10 05:41:05;;;;;;;2.85;2.3;;;;;;;18.6;68.69238;94946.51;;;;
2020/07/10 05:43:03;;;;;;;2.85;2.3;;;;;;;18.6;68.69238;94946.51;;;;
2020/07/10 05:44:42;;;;;;;2.85;2.3;;;;;;;18.6;68.69238;94946.51;;;;
2020/07/10 05:49:11;;;;;;;2.85;2.3;;;;;;;18.6;68.69238;94946.51;;;;
2020/07/10 05:54:54;;;;;;;2.7;2.15;;;;;;;19.77;66.87988;94945.39;;;;
2020/07/10 05:56:36;;;;;;;2.7;2.15;;;;;;;19.77;66.87988;94945.39;;;;
2020/07/10 05:58:13;;;;;;;2.7;2.15;;;;;;;19.77;66.87988;94945.39;;;;
2020/07/10 06:00:00;;;;;;;2.7;2.15;;;;;;;19.77;66.87988;94945.39;;;;
2020/07/10 06:01:13;;;;;;;4.75;2.55;;;;;;;20.34;65.88965;94932.15;;;;
2020/07/10 06:02:15;;;;;;;4.75;2.55;;;;;;;20.34;65.88965;94932.15;;;;
2020/07/10 06:04:04;;;;;;;4.75;2.55;;;;;;;20.34;65.88965;94932.15;;;;
2020/07/10 06:06:12;;;;;;;4.75;2.55;;;;;;;20.34;65.88965;94932.15;;;;
2020/07/10 06:09:14;;;;;;;4.75;2.55;;;;;;;20.34;65.88965;94932.15;;;;
2020/07/10 06:16:14;;;;;;;4.95;2.3;;;;;;;20.9;64.74316;94922.96;;;;
2020/07/10 06:21:48;;;;;;;4.95;2.3;;;;;;;20.9;64.74316;94922.96;;;;
2020/07/10 06:23:28;;;;;;;3.7;2;;;;;;;21.57;63.55078;94921.69;;;;
2020/07/10 06:24:42;;;;;;;3.7;2;;;;;;;21.57;63.55078;94921.69;;;;
2020/07/10 06:30:08;;;;;;;3.7;2;;;;;;;21.57;63.55078;94921.69;;;;
2020/07/10 06:31:37;;;;;;;3.7;2;;;;;;;21.57;63.55078;94921.69;;;;
2020/07/10 06:33:02;;;;;;;4.05;2.1;;;;;;;22.23;62.28906;94920.21;;;;
2020/07/10 06:34:41;;;;;;;4.05;2.1;;;;;;;22.23;62.28906;94920.21;;;;
2020/07/10 06:36:03;;;;;;;4.05;2.1;;;;;;;22.23;62.28906;94920.21;;;;
2020/07/10 06:38:02;;;;;;;4.05;2.1;;;;;;;22.23;62.28906;94920.21;;;;
2020/07/10 06:39:54;;;;;;;4.05;2.1;;;;;;;22.23;62.28906;94920.21;;;;
2020/07/10 06:41:12;;;;;;;4.05;2.1;;;;;;;22.23;62.28906;94920.21;;;;
2020/07/10 06:42:56;;;;;;;4.05;2.1;;;;;;;22.23;62.28906;94920.21;;;;
2020/07/10 06:44:15;;;;;;;4.1;2.3;;;;;;;23.34;60.27539;94926.97;;;;
2020/07/10 06:45:17;;;;;;;4.1;2.3;;;;;;;23.34;60.27539;94926.97;;;;
2020/07/10 06:46:19;;;;;;;4.1;2.3;;;;;;;23.34;60.27539;94926.97;;;;
2020/07/10 06:47:24;;;;;;;4.1;2.3;;;;;;;23.34;60.27539;94926.97;;;;
2020/07/10 06:48:34;;;;;;;4.1;2.3;;;;;;;23.34;60.27539;94926.97;;;;
2020/07/10 06:49:38;;;;;;;4.1;2.3;;;;;;;23.34;60.27539;94926.97;;;;
2020/07/10 06:50:44;;;;;;;4.1;2.3;;;;;;;23.34;60.27539;94926.97;;;;
2020/07/10 06:51:47;;;;;;;4.1;2.3;;;;;;;23.34;60.27539;94926.97;;;;
2020/07/10 06:52:56;;;;;;;4.1;2.3;;;;;;;23.34;60.27539;94926.97;;;;
2020/07/10 06:54:07;;;;;;;5.3;2.4;;;;;;;25.16;57.30957;94922.97;;;;
2020/07/10 06:55:13;;;;;;;5.3;2.4;;;;;;;25.16;57.30957;94922.97;;;;
2020/07/10 06:56:19;;;;;;;5.3;2.4;;;;;;;25.16;57.30957;94922.97;;;;
2020/07/10 06:57:26;;;;;;;5.3;2.4;;;;;;;25.16;57.30957;94922.97;;;;
2020/07/10 06:58:30;;;;;;;5.3;2.4;;;;;;;25.16;57.30957;94922.97;;;;
2020/07/10 06:59:39;;;;;;;5.3;2.4;;;;;;;25.16;57.30957;94922.97;;;;
2020/07/10 07:00:52;;;;;;;5.3;2.4;;;;;;;25.16;57.30957;94922.97;;;;
2020/07/10 07:02:08;;;;;;;5.3;2.4;;;;;;;25.16;57.30957;94922.97;;;;
2020/07/10 07:04:39;;;;;;;2.8;2.2;;;;;;;26.93;54.54199;94921.63;;;;
2020/07/10 07:06:02;;;;;;;2.8;2.2;;;;;;;26.93;54.54199;94921.63;;;;
2020/07/10 07:07:14;;;;;;;2.8;2.2;;;;;;;26.93;54.54199;94921.63;;;;
2020/07/10 07:08:36;;;;;;;2.8;2.2;;;;;;;26.93;54.54199;94921.63;;;;
2020/07/10 07:10:04;;;;;;;2.8;2.2;;;;;;;26.93;54.54199;94921.63;;;;
2020/07/10 07:11:06;;;;;;;2.8;2.2;;;;;;;26.93;54.54199;94921.63;;;;
2020/07/10 07:12:10;;;;;;;2.8;2.2;;;;;;;26.93;54.54199;94921.63;;;;
2020/07/10 07:13:14;;;;;;;2.8;2.2;;;;;;;26.93;54.54199;94921.63;;;;
2020/07/10 07:14:22;;;;;;;2.8;2.2;;;;;;;26.93;54.54199;94921.63;;;;
2020/07/10 07:15:22;;;;;;;4.35;2.1;;;;;;;28.37;51.94629;94932.47;;;;
2020/07/10 07:16:23;;;;;;;4.35;2.1;;;;;;;28.37;51.94629;94932.47;;;;
2020/07/10 07:17:26;;;;;;;4.35;2.1;;;;;;;28.37;51.94629;94932.47;;;;
2020/07/10 07:18:26;;;;;;;4.35;2.1;;;;;;;28.37;51.94629;94932.47;;;;
2020/07/10 07:19:29;;;;;;;4.35;2.1;;;;;;;28.37;51.94629;94932.47;;;;
2020/07/10 07:20:44;;;;;;;4.35;2.1;;;;;;;28.37;51.94629;94932.47;;;;
2020/07/10 07:22:02;;;;;;;4.35;2.1;;;;;;;28.37;51.94629;94932.47;;;;
2020/07/10 07:23:37;;;;;;;4.35;2.1;;;;;;;28.37;51.94629;94932.47;;;;
2020/07/10 07:29:12;;;;;;;2.45;2.1;;;;;;;29.64;49.22363;94926.7;;;;
2020/07/10 07:30:47;;;;;;;2.45;2.1;;;;;;;29.64;49.22363;94926.7;;;;
2020/07/10 07:32:17;;;;;;;2.45;2.1;;;;;;;29.64;49.22363;94926.7;;;;
2020/07/10 07:33:40;;;;;;;2.45;2.1;;;;;;;29.64;49.22363;94926.7;;;;
2020/07/10 07:35:01;;;;;;;2.45;2.1;;;;;;;29.64;49.22363;94926.7;;;;
2020/07/10 07:36:04;;;;;;;2.45;2.1;;;;;;;29.64;49.22363;94926.7;;;;
2020/07/10 07:37:30;;;;;;;3.750001;2.1;;;;;;;30.62;47.38867;94913.95;;;;
2020/07/10 07:38:54;;;;;;;3.750001;2.1;;;;;;;30.62;47.38867;94913.95;;;;
2020/07/10 07:40:07;;;;;;;3.750001;2.1;;;;;;;30.62;47.38867;94913.95;;;;
2020/07/10 07:41:08;;;;;;;3.750001;2.1;;;;;;;30.62;47.38867;94913.95;;;;
2020/07/10 07:42:21;;;;;;;3.750001;2.1;;;;;;;30.62;47.38867;94913.95;;;;
2020/07/10 07:43:41;;;;;;;3.750001;2.1;;;;;;;30.62;47.38867;94913.95;;;;
2020/07/10 07:44:45;;;;;;;3.750001;2.1;;;;;;;30.62;47.38867;94913.95;;;;
2020/07/10 07:45:46;;;;;;;3.750001;2.1;;;;;;;30.62;47.38867;94913.95;;;;
2020/07/10 07:46:54;;;;;;;3.750001;2.1;;;;;;;30.62;47.38867;94913.95;;;;
2020/07/10 07:48:02;;;;;;;2.25;1.95;;;;;;;31.65;46.04688;94916.41;;;;
2020/07/10 07:49:05;;;;;;;2.25;1.95;;;;;;;31.65;46.04688;94916.41;;;;
2020/07/10 07:50:07;;;;;;;2.25;1.95;;;;;;;31.65;46.04688;94916.41;;;;
2020/07/10 07:51:19;;;;;;;2.25;1.95;;;;;;;31.65;46.04688;94916.41;;;;
2020/07/10 07:52:42;;;;;;;2.25;1.95;;;;;;;31.65;46.04688;94916.41;;;;
2020/07/10 07:53:57;;;;;;;2.25;1.95;;;;;;;31.65;46.04688;94916.41;;;;
2020/07/10 07:55:17;;;;;;;2.25;1.95;;;;;;;31.65;46.04688;94916.41;;;;
2020/07/10 07:56:18;;;;;;;2.25;1.95;;;;;;;31.65;46.04688;94916.41;;;;
2020/07/10 07:57:20;;;;;;;2.25;1.95;;;;;;;31.65;46.04688;94916.41;;;;
2020/07/10 07:58:23;;;;;;;2.95;2.1;;;;;;;32.28;44.16113;94921.02;;;;
2020/07/10 07:59:24;;;;;;;2.95;2.1;;;;;;;32.28;44.16113;94921.02;;;;
2020/07/10 08:00:32;;;;;;;2.95;2.1;;;;;;;32.28;44.16113;94921.02;;;;
2020/07/10 08:01:34;;;;;;;2.95;2.1;;;;;;;32.28;44.16113;94921.02;;;;
2020/07/10 08:02:42;;;;;;;2.95;2.1;;;;;;;32.28;44.16113;94921.02;;;;
2020/07/10 08:03:52;;;;;;;2.95;2.1;;;;;;;32.28;44.16113;94921.02;;;;
2020/07/10 08:04:53;;;;;;;2.95;2.1;;;;;;;32.28;44.16113;94921.02;;;;
2020/07/10 08:05:53;;;;;;;2.95;2.1;;;;;;;32.28;44.16113;94921.02;;;;
2020/07/10 08:06:54;;;;;;;2.95;2.1;;;;;;;32.28;44.16113;94921.02;;;;
2020/07/10 08:07:55;;;;;;;2.95;2.1;;;;;;;32.28;44.16113;94921.02;;;;
2020/07/10 08:08:56;;;;;;;3.8;1.8;;;;;;;32.64;42.44824;94919.25;;;;
2020/07/10 08:09:59;;;;;;;3.8;1.8;;;;;;;32.64;42.44824;94919.25;;;;
2020/07/10 08:11:02;;;;;;;3.8;1.8;;;;;;;32.64;42.44824;94919.25;;;;
2020/07/10 08:12:04;;;;;;;3.8;1.8;;;;;;;32.64;42.44824;94919.25;;;;
2020/07/10 08:13:07;;;;;;;3.8;1.8;;;;;;;32.64;42.44824;94919.25;;;;
2020/07/10 08:14:12;;;;;;;3.8;1.8;;;;;;;32.64;42.44824;94919.25;;;;
2020/07/10 08:16:02;;;;;;;3.8;1.8;;;;;;;32.64;42.44824;94919.25;;;;
2020/07/10 08:17:06;;;;;;;3.8;1.8;;;;;;;32.64;42.44824;94919.25;;;;
2020/07/10 08:18:22;;;;;;;3.8;1.8;;;;;;;32.64;42.44824;94919.25;;;;
2020/07/10 08:19:28;;;;;;;3.7;2;;;;;;;32.85;40.72852;94913.65;;;;
2020/07/10 08:20:48;;;;;;;3.7;2;;;;;;;32.85;40.72852;94913.65;;;;
2020/07/10 08:22:08;;;;;;;3.7;2;;;;;;;32.85;40.72852;94913.65;;;;
2020/07/10 08:23:10;;;;;;;3.7;2;;;;;;;32.85;40.72852;94913.65;;;;
2020/07/10 08:24:17;;;;;;;3.7;2;;;;;;;32.85;40.72852;94913.65;;;;
2020/07/10 08:25:19;;;;;;;3.7;2;;;;;;;32.85;40.72852;94913.65;;;;
2020/07/10 08:26:32;;;;;;;3.7;2;;;;;;;32.85;40.72852;94913.65;;;;
2020/07/10 08:27:49;;;;;;;3.7;2;;;;;;;32.85;40.72852;94913.65;;;;
2020/07/10 08:28:53;;;;;;;3.7;2;;;;;;;32.85;40.72852;94913.65;;;;
2020/07/10 08:29:54;;;;;;;3.25;1.85;;;;;;;32.95;38.95313;94908.76;;;;
2020/07/10 08:30:55;;;;;;;3.25;1.85;;;;;;;32.95;38.95313;94908.76;;;;
2020/07/10 08:31:56;;;;;;;3.25;1.85;;;;;;;32.95;38.95313;94908.76;;;;
2020/07/10 08:32:58;;;;;;;3.25;1.85;;;;;;;32.95;38.95313;94908.76;;;;
2020/07/10 08:34:03;;;;;;;3.25;1.85;;;;;;;32.95;38.95313;94908.76;;;;
2020/07/10 08:35:05;;;;;;;3.25;1.85;;;;;;;32.95;38.95313;94908.76;;;;
2020/07/10 08:36:06;;;;;;;3.25;1.85;;;;;;;32.95;38.95313;94908.76;;;;
2020/07/10 08:37:07;;;;;;;3.25;1.85;;;;;;;32.95;38.95313;94908.76;;;;
2020/07/10 08:38:09;;;;;;;3.25;1.85;;;;;;;32.95;38.95313;94908.76;;;;
2020/07/10 08:39:11;;;;;;;3.25;1.85;;;;;;;32.95;38.95313;94908.76;;;;
2020/07/10 08:40:11;;;;;;;5.05;2;;;;;;;33.27;38.32031;94906.02;;;;
2020/07/10 08:41:12;;;;;;;5.05;2;;;;;;;33.27;38.32031;94906.02;;;;
2020/07/10 08:42:21;;;;;;;5.05;2;;;;;;;33.27;38.32031;94906.02;;;;
2020/07/10 08:43:25;;;;;;;5.05;2;;;;;;;33.27;38.32031;94906.02;;;;
2020/07/10 08:44:25;;;;;;;5.05;2;;;;;;;33.27;38.32031;94906.02;;;;
2020/07/10 08:45:26;;;;;;;5.05;2;;;;;;;33.27;38.32031;94906.02;;;;
2020/07/10 08:46:28;;;;;;;5.05;2;;;;;;;33.27;38.32031;94906.02;;;;
2020/07/10 08:47:30;;;;;;;5.05;2;;;;;;;33.27;38.32031;94906.02;;;;
2020/07/10 08:48:31;;;;;;;5.05;2;;;;;;;33.27;38.32031;94906.02;;;;
2020/07/10 08:49:32;;;;;;;5.05;2;;;;;;;33.27;38.32031;94906.02;;;;
2020/07/10 08:50:32;;;;;;;5.05;2;;;;;;;33.27;38.32031;94906.02;;;;
2020/07/10 08:51:38;;;;;;;4.7;2.2;;;;;;;33.94;37.16699;94901.83;;;;
2020/07/10 08:52:51;;;;;;;4.7;2.2;;;;;;;33.94;37.16699;94901.83;;;;
2020/07/10 08:54:12;;;;;;;4.7;2.2;;;;;;;33.94;37.16699;94901.83;;;;
2020/07/10 08:55:13;;;;;;;4.7;2.2;;;;;;;33.94;37.16699;94901.83;;;;
2020/07/10 08:56:13;;;;;;;4.7;2.2;;;;;;;33.94;37.16699;94901.83;;;;
2020/07/10 08:57:15;;;;;;;4.7;2.2;;;;;;;33.94;37.16699;94901.83;;;;
2020/07/10 08:58:15;;;;;;;4.7;2.2;;;;;;;33.94;37.16699;94901.83;;;;
2020/07/10 08:59:16;;;;;;;4.7;2.2;;;;;;;33.94;37.16699;94901.83;;;;
2020/07/10 09:00:16;;;;;;;4.7;2.2;;;;;;;33.94;37.16699;94901.83;;;;
2020/07/10 09:01:17;;;;;;;6.549999;2.15;;;;;;;35.85;34.59668;94911.53;;;;
2020/07/10 09:02:18;;;;;;;6.549999;2.15;;;;;;;35.85;34.59668;94911.53;;;;
2020/07/10 09:03:18;;;;;;;6.549999;2.15;;;;;;;35.85;34.59668;94911.53;;;;
2020/07/10 09:04:19;;;;;;;6.549999;2.15;;;;;;;35.85;34.59668;94911.53;;;;
2020/07/10 09:05:19;;;;;;;6.549999;2.15;;;;;;;35.85;34.59668;94911.53;;;;
2020/07/10 09:06:20;;;;;;;6.549999;2.15;;;;;;;35.85;34.59668;94911.53;;;;
2020/07/10 09:07:21;;;;;;;6.549999;2.15;;;;;;;35.85;34.59668;94911.53;;;;
2020/07/10 09:08:22;;;;;;;6.549999;2.15;;;;;;;35.85;34.59668;94911.53;;;;
2020/07/10 09:09:22;;;;;;;6.549999;2.15;;;;;;;35.85;34.59668;94911.53;;;;
2020/07/10 09:10:23;;;;;;;6.549999;2.15;;;;;;;35.85;34.59668;94911.53;;;;
2020/07/10 09:11:23;;;;;;;6.549999;2.15;;;;;;;35.85;34.59668;94911.53;;;;
2020/07/10 09:12:26;;;;;;;4.2;2.35;;;;;;;38.08;30.47852;94912.44;;;;
2020/07/10 09:13:27;;;;;;;4.2;2.35;;;;;;;38.08;30.47852;94912.44;;;;
2020/07/10 09:14:28;;;;;;;4.2;2.35;;;;;;;38.08;30.47852;94912.44;;;;
2020/07/10 09:15:28;;;;;;;4.2;2.35;;;;;;;38.08;30.47852;94912.44;;;;
2020/07/10 09:16:29;;;;;;;4.2;2.35;;;;;;;38.08;30.47852;94912.44;;;;
2020/07/10 09:17:29;;;;;;;4.2;2.35;;;;;;;38.08;30.47852;94912.44;;;;
2020/07/10 09:18:30;;;;;;;4.2;2.35;;;;;;;38.08;30.47852;94912.44;;;;
2020/07/10 09:19:30;;;;;;;4.2;2.35;;;;;;;38.08;30.47852;94912.44;;;;
2020/07/10 09:20:31;;;;;;;4.2;2.35;;;;;;;38.08;30.47852;94912.44;;;;
2020/07/10 09:21:31;;;;;;;4.2;2.35;;;;;;;38.08;30.47852;94912.44;;;;
2020/07/10 09:22:31;;;;;;;3.3;2.2;;;;;;;40.07;28.88379;94907.4;;;;
2020/07/10 09:23:32;;;;;;;3.3;2.2;;;;;;;40.07;28.88379;94907.4;;;;
2020/07/10 09:24:32;;;;;;;3.3;2.2;;;;;;;40.07;28.88379;94907.4;;;;
2020/07/10 09:25:36;;;;;;;3.3;2.2;;;;;;;40.07;28.88379;94907.4;;;;
2020/07/10 09:26:38;;;;;;;3.3;2.2;;;;;;;40.07;28.88379;94907.4;;;;
2020/07/10 09:27:42;;;;;;;3.3;2.2;;;;;;;40.07;28.88379;94907.4;;;;
2020/07/10 09:28:43;;;;;;;3.3;2.2;;;;;;;40.07;28.88379;94907.4;;;;
2020/07/10 09:29:46;;;;;;;3.3;2.2;;;;;;;40.07;28.88379;94907.4;;;;
2020/07/10 09:30:49;;;;;;;3.3;2.2;;;;;;;40.07;28.88379;94907.4;;;;
2020/07/10 09:31:50;;;;;;;3.3;2.2;;;;;;;40.07;28.88379;94907.4;;;;
2020/07/10 09:32:53;;;;;;;3.3;2.2;;;;;;;40.07;28.88379;94907.4;;;;
2020/07/10 09:33:58;;;;;;;3.5;2.1;;;;;;;41.7;26.75293;94911.02;;;;
2020/07/10 09:35:01;;;;;;;3.5;2.1;;;;;;;41.7;26.75293;94911.02;;;;
2020/07/10 09:36:02;;;;;;;3.5;2.1;;;;;;;41.7;26.75293;94911.02;;;;
2020/07/10 09:37:02;;;;;;;3.5;2.1;;;;;;;41.7;26.75293;94911.02;;;;
2020/07/10 09:38:03;;;;;;;3.5;2.1;;;;;;;41.7;26.75293;94911.02;;;;
2020/07/10 09:39:07;;;;;;;3.5;2.1;;;;;;;41.7;26.75293;94911.02;;;;
2020/07/10 09:40:07;;;;;;;3.5;2.1;;;;;;;41.7;26.75293;94911.02;;;;
2020/07/10 09:41:08;;;;;;;3.5;2.1;;;;;;;41.7;26.75293;94911.02;;;;
2020/07/10 09:42:09;;;;;;;3.5;2.1;;;;;;;41.7;26.75293;94911.02;;;;
2020/07/10 09:43:09;;;;;;;3.5;2.1;;;;;;;41.7;26.75293;94911.02;;;;
2020/07/10 09:44:12;;;;;;;4;2.2;;;;;;;42.03;25.45508;94917.86;;;;
2020/07/10 09:45:21;;;;;;;4;2.2;;;;;;;42.03;25.45508;94917.86;;;;
2020/07/10 09:46:24;;;;;;;4;2.2;;;;;;;42.03;25.45508;94917.86;;;;
2020/07/10 09:47:27;;;;;;;4;2.2;;;;;;;42.03;25.45508;94917.86;;;;
2020/07/10 09:48:36;;;;;;;4;2.2;;;;;;;42.03;25.45508;94917.86;;;;
2020/07/10 09:49:38;;;;;;;4;2.2;;;;;;;42.03;25.45508;94917.86;;;;
2020/07/10 09:50:42;;;;;;;4;2.2;;;;;;;42.03;25.45508;94917.86;;;;
2020/07/10 09:51:43;;;;;;;4;2.2;;;;;;;42.03;25.45508;94917.86;;;;
2020/07/10 09:52:44;;;;;;;4;2.2;;;;;;;42.03;25.45508;94917.86;;;;
2020/07/10 09:53:44;;;;;;;4;2.2;;;;;;;42.03;25.45508;94917.86;;;;
2020/07/10 09:54:45;;;;;;;4.45;2.4;;;;;;;42.42;24.38086;94912.15;;;;
2020/07/10 09:55:46;;;;;;;4.45;2.4;;;;;;;42.42;24.38086;94912.15;;;;
2020/07/10 09:56:47;;;;;;;4.45;2.4;;;;;;;42.42;24.38086;94912.15;;;;
2020/07/10 09:57:48;;;;;;;4.45;2.4;;;;;;;42.42;24.38086;94912.15;;;;
2020/07/10 09:58:48;;;;;;;4.45;2.4;;;;;;;42.42;24.38086;94912.15;;;;
2020/07/10 09:59:49;;;;;;;4.45;2.4;;;;;;;42.42;24.38086;94912.15;;;;
2020/07/10 10:00:49;;;;;;;4.45;2.4;;;;;;;42.42;24.38086;94912.15;;;;
2020/07/10 10:01:49;;;;;;;4.45;2.4;;;;;;;42.42;24.38086;94912.15;;;;
2020/07/10 10:02:50;;;;;;;4.45;2.4;;;;;;;42.42;24.38086;94912.15;;;;
2020/07/10 10:03:50;;;;;;;4.45;2.4;;;;;;;42.42;24.38086;94912.15;;;;
2020/07/10 10:04:51;;;;;;;4.85;2.2;;;;;;;42.39;23.64551;94901.06;;;;
2020/07/10 10:05:51;;;;;;;4.85;2.2;;;;;;;42.39;23.64551;94901.06;;;;
2020/07/10 10:06:52;;;;;;;4.85;2.2;;;;;;;42.39;23.64551;94901.06;;;;
2020/07/10 10:07:52;;;;;;;4.85;2.2;;;;;;;42.39;23.64551;94901.06;;;;
2020/07/10 10:08:53;;;;;;;4.85;2.2;;;;;;;42.39;23.64551;94901.06;;;;
2020/07/10 10:09:53;;;;;;;4.85;2.2;;;;;;;42.39;23.64551;94901.06;;;;
2020/07/10 10:10:54;;;;;;;4.85;2.2;;;;;;;42.39;23.64551;94901.06;;;;
2020/07/10 10:11:54;;;;;;;4.85;2.2;;;;;;;42.39;23.64551;94901.06;;;;
2020/07/10 10:12:55;;;;;;;4.85;2.2;;;;;;;42.39;23.64551;94901.06;;;;
2020/07/10 10:13:56;;;;;;;4.85;2.2;;;;;;;42.39;23.64551;94901.06;;;;
2020/07/10 10:14:57;;;;;;;4.85;2.2;;;;;;;42.39;23.64551;94901.06;;;;
2020/07/10 10:15:57;;;;;;;3.75;2.3;;;;;;;42.52;23.58203;94905.35;;;;
2020/07/10 10:16:58;;;;;;;3.75;2.3;;;;;;;42.52;23.58203;94905.35;;;;
2020/07/10 10:17:58;;;;;;;3.75;2.3;;;;;;;42.52;23.58203;94905.35;;;;
2020/07/10 10:18:59;;;;;;;3.75;2.3;;;;;;;42.52;23.58203;94905.35;;;;
2020/07/10 10:20:00;;;;;;;3.75;2.3;;;;;;;42.52;23.58203;94905.35;;;;
2020/07/10 10:21:01;;;;;;;3.75;2.3;;;;;;;42.52;23.58203;94905.35;;;;
2020/07/10 10:22:02;;;;;;;3.75;2.3;;;;;;;42.52;23.58203;94905.35;;;;
2020/07/10 10:23:02;;;;;;;3.75;2.3;;;;;;;42.52;23.58203;94905.35;;;;
2020/07/10 10:24:03;;;;;;;3.75;2.3;;;;;;;42.52;23.58203;94905.35;;;;
2020/07/10 10:25:03;;;;;;;3.75;2.3;;;;;;;42.52;23.58203;94905.35;;;;
2020/07/10 10:26:04;;;;;;;9.200001;2.2;;;;;;;41.92;23.95898;94909.45;;;;
2020/07/10 10:27:04;;;;;;;9.200001;2.2;;;;;;;41.92;23.95898;94909.45;;;;
2020/07/10 10:28:05;;;;;;;9.200001;2.2;;;;;;;41.92;23.95898;94909.45;;;;
2020/07/10 10:29:06;;;;;;;9.200001;2.2;;;;;;;41.92;23.95898;94909.45;;;;
2020/07/10 10:30:06;;;;;;;9.200001;2.2;;;;;;;41.92;23.95898;94909.45;;;;
2020/07/10 10:31:07;;;;;;;9.200001;2.2;;;;;;;41.92;23.95898;94909.45;;;;
2020/07/10 10:32:07;;;;;;;9.200001;2.2;;;;;;;41.92;23.95898;94909.45;;;;
2020/07/10 10:33:08;;;;;;;9.200001;2.2;;;;;;;41.92;23.95898;94909.45;;;;
2020/07/10 10:34:09;;;;;;;9.200001;2.2;;;;;;;41.92;23.95898;94909.45;;;;
2020/07/10 10:35:09;;;;;;;9.200001;2.2;;;;;;;41.92;23.95898;94909.45;;;;
2020/07/10 10:36:10;;;;;;;9.200001;2.2;;;;;;;41.92;23.95898;94909.45;;;;
2020/07/10 10:37:11;;;;;;;4.900001;2.2;;;;;;;41.17;24.17676;94907.69;;;;
2020/07/10 10:38:11;;;;;;;4.900001;2.2;;;;;;;41.17;24.17676;94907.69;;;;
2020/07/10 10:39:12;;;;;;;4.900001;2.2;;;;;;;41.17;24.17676;94907.69;;;;
2020/07/10 10:40:13;;;;;;;4.900001;2.2;;;;;;;41.17;24.17676;94907.69;;;;
2020/07/10 10:41:15;;;;;;;4.900001;2.2;;;;;;;41.17;24.17676;94907.69;;;;
2020/07/10 10:42:16;;;;;;;4.900001;2.2;;;;;;;41.17;24.17676;94907.69;;;;
2020/07/10 10:43:17;;;;;;;4.900001;2.2;;;;;;;41.17;24.17676;94907.69;;;;
2020/07/10 10:44:17;;;;;;;4.900001;2.2;;;;;;;41.17;24.17676;94907.69;;;;
2020/07/10 10:45:18;;;;;;;4.900001;2.2;;;;;;;41.17;24.17676;94907.69;;;;
2020/07/10 10:46:18;;;;;;;4.900001;2.2;;;;;;;41.17;24.17676;94907.69;;;;
2020/07/10 10:47:19;;;;;;;5.25;2.2;;;;;;;40.13;24.8877;94892.54;;;;
2020/07/10 10:48:21;;;;;;;5.25;2.2;;;;;;;40.13;24.8877;94892.54;;;;
2020/07/10 10:49:21;;;;;;;5.25;2.2;;;;;;;40.13;24.8877;94892.54;;;;